createdAt,value
2022-08-07T00:02:36.731Z,25.10
2022-08-07T00:04:58.482Z,25.04
2022-08-07T00:07:27.557Z,24.77
2022-08-07T00:10:26.532Z,24.95
2022-08-07T00:13:00.794Z,24.89
2022-08-07T00:15:38.015Z,24.83
2022-08-07T00:18:19.412Z,24.76
2022-08-07T00:20:49.629Z,24.62
2022-08-07T00:23:17.221Z,24.67
2022-08-07T00:25:45.703Z,24.61
2022-08-07T00:28:21.957Z,24.60
2022-08-07T00:30:49.391Z,24.59
2022-08-07T00:33:16.697Z,24.53
2022-08-07T00:35:49.083Z,24.42
2022-08-07T00:38:16.658Z,24.10
2022-08-07T00:41:00.159Z,24.35
2022-08-07T00:44:01.274Z,24.24
2022-08-07T00:46:14.527Z,24.15
2022-08-07T00:48:42.338Z,24.18
2022-08-07T00:51:10.446Z,24.19
2022-08-07T00:53:39.298Z,24.11
2022-08-07T00:56:18.915Z,24.07
2022-08-07T00:58:46.914Z,23.76
2022-08-07T01:01:15.435Z,23.94
2022-08-07T01:03:56.734Z,23.90
2022-08-07T01:06:30.767Z,23.74
2022-08-07T01:09:01.008Z,23.83
2022-08-07T01:12:09.585Z,23.80
2022-08-07T01:14:28.583Z,23.73
2022-08-07T01:16:56.871Z,23.71
2022-08-07T01:19:24.941Z,23.65
2022-08-07T01:21:53.334Z,23.62
2022-08-07T01:24:22.940Z,23.60
2022-08-07T01:26:52.022Z,23.56
2022-08-07T01:29:23.195Z,23.48
2022-08-07T01:31:51.954Z,23.50
2022-08-07T01:34:30.592Z,23.46
2022-08-07T01:36:58.966Z,23.45
2022-08-07T01:39:40.900Z,23.42
2022-08-07T01:42:37.604Z,23.36
2022-08-07T01:45:03.213Z,23.36
2022-08-07T01:48:17.870Z,22.99
2022-08-07T01:50:17.284Z,23.15
2022-08-07T01:52:57.757Z,23.24
2022-08-07T01:55:28.819Z,23.10
2022-08-07T01:58:05.691Z,22.95
2022-08-07T02:00:51.173Z,22.86
2022-08-07T02:03:42.811Z,22.96
2022-08-07T02:06:30.730Z,23.03
2022-08-07T02:09:03.683Z,22.98
2022-08-07T02:12:02.665Z,23.01
2022-08-07T02:18:10.215Z,22.94
2022-08-07T02:20:42.490Z,22.97
2022-08-07T02:23:23.804Z,22.94
2022-08-07T02:26:30.830Z,22.94
2022-08-07T02:28:41.132Z,22.93
2022-08-07T02:31:28.228Z,22.62
2022-08-07T02:34:02.874Z,22.76
2022-08-07T02:36:33.342Z,22.72
2022-08-07T02:39:16.175Z,22.68
2022-08-07T02:41:50.913Z,22.58
2022-08-07T02:44:34.782Z,22.67
2022-08-07T02:47:05.263Z,22.63
2022-08-07T02:49:58.985Z,22.56
2022-08-07T02:52:44.239Z,22.54
2022-08-07T02:55:28.483Z,22.50
2022-08-07T02:58:12.505Z,22.49
2022-08-07T03:00:46.599Z,22.46
2022-08-07T03:03:21.031Z,22.51
2022-08-07T03:05:54.248Z,22.43
2022-08-07T03:08:27.033Z,22.39
2022-08-07T03:10:57.518Z,22.14
2022-08-07T03:13:25.469Z,22.42
2022-08-07T03:15:58.661Z,22.33
2022-08-07T03:18:34.935Z,22.22
2022-08-07T03:21:08.812Z,22.18
2022-08-07T03:24:19.246Z,21.99
2022-08-07T03:26:31.945Z,22.32
2022-08-07T03:29:02.072Z,22.23
2022-08-07T03:31:43.104Z,22.31
2022-08-07T03:34:18.808Z,22.28
2022-08-07T03:36:53.013Z,22.31
2022-08-07T03:39:59.266Z,22.34
2022-08-07T03:42:10.317Z,22.30
2022-08-07T03:44:38.597Z,22.22
2022-08-07T03:47:14.066Z,22.32
2022-08-07T03:49:48.034Z,22.40
2022-08-07T03:52:26.926Z,22.53
2022-08-07T03:55:07.047Z,22.47
2022-08-07T03:58:34.861Z,22.28
2022-08-07T04:00:29.403Z,22.67
2022-08-07T04:02:59.460Z,22.67
2022-08-07T04:05:39.261Z,22.75
2022-08-07T04:08:11.835Z,22.82
2022-08-07T04:10:42.306Z,22.92
2022-08-07T04:13:15.199Z,22.87
2022-08-07T04:15:45.492Z,22.85
2022-08-07T04:18:56.816Z,22.87
2022-08-07T04:21:02.123Z,22.73
2022-08-07T04:23:43.383Z,22.78
2022-08-07T04:26:21.842Z,22.94
2022-08-07T04:28:49.181Z,22.98
2022-08-07T04:31:19.800Z,23.03
2022-08-07T04:33:54.974Z,22.92
2022-08-07T04:36:26.063Z,22.98
2022-08-07T04:38:53.521Z,22.88
2022-08-07T04:41:20.697Z,22.71
2022-08-07T04:44:09.982Z,22.97
2022-08-07T04:47:04.761Z,23.02
2022-08-07T04:49:57.703Z,22.78
2022-08-07T04:52:50.991Z,23.18
2022-08-07T04:58:11.090Z,23.13
2022-08-07T04:59:17.461Z,23.23
2022-08-07T05:01:35.761Z,23.27
2022-08-07T05:04:17.853Z,23.15
2022-08-07T05:06:57.250Z,23.36
2022-08-07T05:09:45.871Z,23.44
2022-08-07T05:12:27.141Z,23.37
2022-08-07T05:15:21.523Z,23.64
2022-08-07T05:17:57.222Z,23.70
2022-08-07T05:20:27.229Z,23.69
2022-08-07T05:22:59.629Z,23.82
2022-08-07T05:25:54.316Z,23.87
2022-08-07T05:28:22.570Z,23.96
2022-08-07T05:30:53.342Z,23.74
2022-08-07T05:33:22.252Z,23.81
2022-08-07T05:35:51.811Z,23.80
2022-08-07T05:39:01.382Z,23.94
2022-08-07T05:41:14.404Z,24.39
2022-08-07T05:44:08.537Z,24.46
2022-08-07T05:46:40.395Z,24.52
2022-08-07T05:49:12.794Z,24.62
2022-08-07T05:51:43.235Z,24.61
2022-08-07T05:54:30.552Z,24.70
2022-08-07T05:57:04.171Z,24.60
2022-08-07T05:59:38.984Z,24.56
2022-08-07T06:02:22.014Z,24.88
2022-08-07T06:04:59.353Z,25.15
2022-08-07T06:08:14.949Z,25.07
2022-08-07T06:10:15.368Z,25.31
2022-08-07T06:12:42.487Z,25.48
2022-08-07T06:15:16.216Z,25.58
2022-08-07T06:17:53.373Z,25.72
2022-08-07T06:20:25.522Z,25.61
2022-08-07T06:23:46.320Z,25.58
2022-08-07T06:25:57.156Z,25.59
2022-08-07T06:28:27.965Z,25.75
2022-08-07T06:30:56.077Z,25.81
2022-08-07T06:33:24.352Z,25.82
2022-08-07T06:36:13.381Z,25.91
2022-08-07T06:38:39.310Z,26.11
2022-08-07T06:41:29.376Z,26.30
2022-08-07T06:44:16.256Z,26.43
2022-08-07T06:46:43.556Z,26.38
2022-08-07T06:49:21.043Z,26.46
2022-08-07T06:51:49.943Z,26.38
2022-08-07T06:55:32.524Z,26.28
2022-08-07T06:57:08.228Z,26.57
2022-08-07T07:00:11.976Z,26.56
2022-08-07T07:02:53.679Z,26.95
2022-08-07T07:06:05.421Z,27.00
2022-08-07T07:08:12.493Z,27.15
2022-08-07T07:10:39.671Z,27.22
2022-08-07T07:13:56.103Z,27.19
2022-08-07T07:16:27.595Z,27.39
2022-08-07T07:19:54.645Z,27.54
2022-08-07T07:22:04.939Z,27.79
2022-08-07T07:24:43.076Z,27.96
2022-08-07T07:27:35.767Z,27.89
2022-08-07T07:30:32.517Z,28.15
2022-08-07T07:33:05.021Z,28.19
2022-08-07T07:35:34.001Z,28.29
2022-08-07T07:38:23.428Z,28.54
2022-08-07T07:40:52.123Z,28.58
2022-08-07T07:43:47.477Z,28.77
2022-08-07T07:46:37.073Z,28.88
2022-08-07T07:50:29.693Z,28.75
2022-08-07T07:51:58.568Z,28.99
2022-08-07T07:54:27.525Z,29.25
2022-08-07T07:56:55.358Z,29.46
2022-08-07T07:59:52.283Z,29.57
2022-08-07T08:02:34.324Z,29.84
2022-08-07T08:05:14.287Z,29.90
2022-08-07T08:07:59.594Z,30.15
2022-08-07T08:10:38.329Z,30.20
2022-08-07T08:13:10.656Z,30.13
2022-08-07T08:15:57.730Z,30.16
2022-08-07T08:18:28.331Z,30.32
2022-08-07T08:20:58.294Z,30.49
2022-08-07T08:23:47.009Z,30.35
2022-08-07T08:26:34.548Z,30.29
2022-08-07T08:29:04.291Z,30.32
2022-08-07T08:32:17.277Z,30.54
2022-08-07T08:34:27.371Z,30.70
2022-08-07T08:36:58.828Z,30.92
2022-08-07T08:39:39.678Z,30.86
2022-08-07T08:42:23.126Z,31.06
2022-08-07T08:45:05.774Z,31.05
2022-08-07T08:48:22.284Z,31.11
2022-08-07T08:51:14.469Z,31.05
2022-08-07T08:53:58.647Z,31.00
2022-08-07T08:56:47.632Z,31.15
2022-08-07T08:59:30.800Z,31.56
2022-08-07T09:02:15.155Z,31.69
2022-08-07T09:04:59.527Z,31.26
2022-08-07T09:07:46.415Z,31.28
2022-08-07T09:10:57.363Z,31.59
2022-08-07T09:13:37.542Z,31.86
2022-08-07T09:16:22.203Z,31.94
2022-08-07T09:19:07.004Z,31.92
2022-08-07T09:22:09.538Z,31.81
2022-08-07T09:24:59.453Z,31.91
2022-08-07T09:27:54.921Z,31.80
2022-08-07T09:30:25.481Z,31.93
2022-08-07T09:33:16.438Z,31.93
2022-08-07T09:36:13.298Z,31.92
2022-08-07T09:39:06.309Z,31.88
2022-08-07T09:41:58.930Z,31.92
2022-08-07T09:47:25.192Z,32.19
2022-08-07T09:48:19.905Z,32.38
2022-08-07T09:52:10.209Z,32.61
2022-08-07T09:54:27.181Z,32.60
2022-08-07T09:57:17.578Z,32.88
2022-08-07T10:00:08.662Z,32.82
2022-08-07T10:04:03.819Z,32.79
2022-08-07T10:06:18.957Z,32.73
2022-08-07T10:09:10.345Z,32.87
2022-08-07T10:12:04.182Z,32.84
2022-08-07T10:15:08.519Z,32.63
2022-08-07T10:18:13.498Z,32.51
2022-08-07T10:20:56.003Z,32.32
2022-08-07T10:24:05.312Z,32.44
2022-08-07T10:26:53.378Z,32.53
2022-08-07T10:29:51.538Z,32.77
2022-08-07T10:32:53.718Z,33.08
2022-08-07T10:36:11.420Z,33.11
2022-08-07T10:38:54.849Z,33.15
2022-08-07T10:41:47.437Z,33.21
2022-08-07T10:44:40.768Z,33.48
2022-08-07T10:47:53.647Z,33.49
2022-08-07T10:50:31.359Z,33.18
2022-08-07T10:53:13.202Z,33.33
2022-08-07T10:55:53.324Z,33.33
2022-08-07T10:58:59.585Z,33.32
2022-08-07T11:01:52.060Z,33.39
2022-08-07T11:04:50.349Z,33.29
2022-08-07T11:07:59.306Z,33.37
2022-08-07T11:10:47.655Z,33.42
2022-08-07T11:14:44.398Z,33.25
2022-08-07T11:16:50.771Z,33.67
2022-08-07T11:19:27.505Z,33.77
2022-08-07T11:22:00.296Z,33.61
2022-08-07T11:24:53.893Z,33.49
2022-08-07T11:28:01.625Z,33.63
2022-08-07T11:30:41.317Z,33.72
2022-08-07T11:33:53.497Z,33.81
2022-08-07T11:36:33.692Z,33.72
2022-08-07T11:39:03.788Z,33.71
2022-08-07T11:42:01.780Z,33.69
2022-08-07T11:44:57.524Z,33.70
2022-08-07T11:48:18.224Z,33.82
2022-08-07T11:51:04.452Z,33.83
2022-08-07T11:54:10.156Z,33.99
2022-08-07T11:57:12.658Z,34.10
2022-08-07T12:00:11.373Z,34.24
2022-08-07T12:03:01.247Z,34.18
2022-08-07T12:05:49.207Z,33.97
2022-08-07T12:08:31.761Z,34.06
2022-08-07T12:11:32.265Z,34.19
2022-08-07T12:14:11.366Z,34.41
2022-08-07T12:16:51.540Z,34.27
2022-08-07T12:20:02.674Z,34.23
2022-08-07T12:22:58.395Z,34.13
2022-08-07T12:26:06.116Z,34.01
2022-08-07T12:29:13.342Z,34.17
2022-08-07T12:32:04.109Z,34.27
2022-08-07T12:34:38.803Z,34.29
2022-08-07T12:37:23.188Z,34.58
2022-08-07T12:39:53.101Z,34.65
2022-08-07T12:42:27.737Z,34.30
2022-08-07T12:44:58.720Z,34.51
2022-08-07T12:47:55.557Z,34.48
2022-08-07T12:50:48.679Z,34.32
2022-08-07T12:54:23.753Z,34.28
2022-08-07T12:56:50.898Z,34.49
2022-08-07T12:59:33.040Z,34.48
2022-08-07T13:02:26.840Z,34.70
2022-08-07T13:05:01.419Z,34.47
2022-08-07T13:08:18.714Z,34.23
2022-08-07T13:10:51.562Z,34.13
2022-08-07T13:13:46.800Z,34.07
2022-08-07T13:16:27.521Z,33.83
2022-08-07T13:19:01.257Z,33.56
2022-08-07T13:21:58.968Z,33.44
2022-08-07T13:24:34.699Z,33.52
2022-08-07T13:27:20.792Z,33.58
2022-08-07T13:29:58.702Z,33.34
2022-08-07T13:32:58.163Z,33.47
2022-08-07T13:36:00.851Z,33.36
2022-08-07T13:38:36.299Z,33.17
2022-08-07T13:41:27.892Z,33.29
2022-08-07T13:44:00.462Z,33.39
2022-08-07T13:46:37.636Z,33.51
2022-08-07T13:50:34.859Z,33.50
2022-08-07T13:52:22.862Z,33.21
2022-08-07T13:54:55.353Z,33.31
2022-08-07T13:57:27.579Z,33.54
2022-08-07T14:00:08.533Z,33.52
2022-08-07T14:02:57.282Z,33.49
2022-08-07T14:05:29.125Z,33.28
2022-08-07T14:08:08.760Z,33.28
2022-08-07T14:10:41.778Z,33.26
2022-08-07T14:13:16.448Z,33.20
2022-08-07T14:15:51.777Z,33.33
2022-08-07T14:18:33.223Z,33.25
2022-08-07T14:22:02.933Z,33.38
2022-08-07T14:24:33.452Z,33.38
2022-08-07T14:28:09.447Z,33.47
2022-08-07T14:30:07.229Z,33.39
2022-08-07T14:32:46.533Z,33.39
2022-08-07T14:35:43.071Z,33.48
2022-08-07T14:38:26.335Z,33.34
2022-08-07T14:41:02.170Z,33.32
2022-08-07T14:43:57.107Z,33.44
2022-08-07T14:46:30.635Z,33.43
2022-08-07T14:49:00.215Z,33.53
2022-08-07T14:52:04.479Z,33.27
2022-08-07T14:54:35.878Z,33.57
2022-08-07T14:57:19.366Z,33.63
2022-08-07T15:00:04.614Z,33.61
2022-08-07T15:02:34.893Z,33.75
2022-08-07T15:05:03.384Z,33.81
2022-08-07T15:07:47.347Z,33.64
2022-08-07T15:10:26.424Z,33.69
2022-08-07T15:13:00.948Z,33.66
2022-08-07T15:18:33.777Z,33.54
2022-08-07T15:21:07.929Z,33.60
2022-08-07T15:25:13.618Z,33.67
2022-08-07T15:26:36.541Z,33.66
2022-08-07T15:32:00.705Z,33.72
2022-08-07T15:34:50.293Z,33.70
2022-08-07T15:37:28.853Z,33.48
2022-08-07T15:43:10.500Z,33.57
2022-08-07T15:46:04.520Z,33.57
2022-08-07T15:49:03.853Z,33.52
2022-08-07T15:54:39.210Z,33.58
2022-08-07T15:57:10.829Z,33.49
2022-08-07T15:59:59.524Z,33.24
2022-08-07T16:02:46.643Z,33.14
2022-08-07T16:05:20.431Z,33.21
2022-08-07T16:08:33.394Z,33.10
2022-08-07T16:10:49.700Z,33.00
2022-08-07T16:13:57.685Z,33.00
2022-08-07T16:16:43.332Z,32.86
2022-08-07T16:19:59.504Z,32.66
2022-08-07T16:22:55.413Z,32.73
2022-08-07T16:25:55.425Z,32.75
2022-08-07T16:30:06.824Z,32.80
2022-08-07T16:31:50.935Z,32.66
2022-08-07T16:34:36.853Z,32.80
2022-08-07T16:38:03.754Z,32.89
2022-08-07T16:40:28.764Z,32.91
2022-08-07T16:43:21.727Z,32.86
2022-08-07T16:47:06.064Z,32.83
2022-08-07T16:50:27.054Z,32.83
2022-08-07T16:53:55.479Z,32.86
2022-08-07T16:56:03.769Z,32.75
2022-08-07T16:59:15.016Z,32.80
2022-08-07T17:01:48.096Z,32.81
2022-08-07T17:04:24.790Z,32.73
2022-08-07T17:07:02.865Z,32.71
2022-08-07T17:10:07.888Z,32.60
2022-08-07T17:12:44.685Z,32.58
2022-08-07T17:15:44.585Z,32.55
2022-08-07T17:18:23.633Z,32.52
2022-08-07T17:20:55.130Z,32.48
2022-08-07T17:23:52.743Z,32.50
2022-08-07T17:26:49.857Z,32.47
2022-08-07T17:30:15.639Z,32.37
2022-08-07T17:32:30.713Z,32.20
2022-08-07T17:35:55.302Z,32.28
2022-08-07T17:38:33.504Z,32.08
2022-08-07T17:42:01.875Z,31.79
2022-08-07T17:44:34.025Z,31.43
2022-08-07T17:47:37.939Z,31.11
2022-08-07T17:50:31.648Z,30.81
2022-08-07T17:54:01.945Z,30.58
2022-08-07T17:56:32.802Z,30.13
2022-08-07T17:59:09.249Z,30.34
2022-08-07T18:01:45.611Z,30.15
2022-08-07T18:04:35.185Z,30.00
2022-08-07T18:07:20.425Z,29.92
2022-08-07T18:10:07.450Z,29.85
2022-08-07T18:12:59.569Z,29.78
2022-08-07T18:15:32.639Z,29.74
2022-08-07T18:18:45.377Z,29.55
2022-08-07T18:21:46.869Z,29.57
2022-08-07T18:24:07.724Z,29.58
2022-08-07T18:26:40.542Z,29.53
2022-08-07T18:30:05.523Z,29.49
2022-08-07T18:32:24.502Z,29.48
2022-08-07T18:35:51.529Z,29.37
2022-08-07T18:38:57.756Z,29.38
2022-08-07T18:41:55.533Z,29.33
2022-08-07T18:44:25.332Z,29.26
2022-08-07T18:47:22.656Z,29.25
2022-08-07T18:50:39.739Z,29.27
2022-08-07T18:53:39.459Z,29.23
2022-08-07T18:56:58.342Z,29.16
2022-08-07T19:00:04.292Z,29.02
2022-08-07T19:02:52.495Z,29.01
2022-08-07T19:06:02.027Z,28.96
2022-08-07T19:08:53.034Z,28.91
2022-08-07T19:11:35.725Z,28.69
2022-08-07T19:14:19.792Z,28.83
2022-08-07T19:17:07.747Z,28.75
2022-08-07T19:19:58.632Z,28.63
2022-08-07T19:22:52.584Z,28.21
2022-08-07T19:26:22.642Z,28.44
2022-08-07T19:28:57.234Z,28.36
2022-08-07T19:31:37.092Z,28.29
2022-08-07T19:34:02.924Z,28.31
2022-08-07T19:36:34.317Z,28.14
2022-08-07T19:39:01.911Z,28.31
2022-08-07T19:42:05.527Z,28.24
2022-08-07T19:44:37.974Z,28.11
2022-08-07T19:47:14.216Z,27.93
2022-08-07T19:49:58.490Z,27.94
2022-08-07T19:52:30.724Z,27.88
2022-08-07T19:54:59.977Z,27.66
2022-08-07T19:58:00.840Z,27.74
2022-08-07T20:00:29.182Z,27.74
2022-08-07T20:03:03.511Z,27.74
2022-08-07T20:06:01.103Z,27.55
2022-08-07T20:08:27.417Z,27.65
2022-08-07T20:11:09.657Z,27.73
2022-08-07T20:13:59.911Z,27.64
2022-08-07T20:16:35.869Z,27.66
2022-08-07T20:19:10.352Z,27.60
2022-08-07T20:21:47.171Z,27.56
2022-08-07T20:24:21.010Z,27.57
2022-08-07T20:26:52.341Z,27.56
2022-08-07T20:29:48.211Z,27.49
2022-08-07T20:32:22.402Z,27.24
2022-08-07T20:34:52.866Z,27.41
2022-08-07T20:37:36.945Z,27.40
2022-08-07T20:40:32.367Z,27.30
2022-08-07T20:43:02.871Z,27.26
2022-08-07T20:46:25.637Z,27.15
2022-08-07T20:48:29.771Z,27.07
2022-08-07T20:51:00.352Z,26.99
2022-08-07T20:54:04.742Z,27.00
2022-08-07T20:56:20.406Z,26.93
2022-08-07T20:58:58.590Z,26.93
2022-08-07T21:01:36.559Z,26.83
2022-08-07T21:04:22.911Z,26.82
2022-08-07T21:06:55.371Z,26.75
2022-08-07T21:09:51.830Z,26.82
2022-08-07T21:12:29.074Z,26.72
2022-08-07T21:15:01.299Z,26.64
2022-08-07T21:18:02.878Z,26.62
2022-08-07T21:20:29.525Z,26.58
2022-08-07T21:23:07.617Z,26.27
2022-08-07T21:25:56.547Z,26.16
2022-08-07T21:28:49.394Z,26.21
2022-08-07T21:32:43.188Z,26.22
2022-08-07T21:34:45.988Z,26.15
2022-08-07T21:37:25.870Z,26.10
2022-08-07T21:40:26.381Z,26.07
2022-08-07T21:43:04.588Z,25.79
2022-08-07T21:46:08.412Z,25.97
2022-08-07T21:48:57.056Z,25.93
2022-08-07T21:51:51.363Z,25.92
2022-08-07T21:55:00.125Z,25.86
2022-08-07T21:57:51.909Z,25.76
2022-08-07T22:00:25.254Z,25.63
2022-08-07T22:03:31.851Z,25.69
2022-08-07T22:06:06.635Z,25.42
2022-08-07T22:09:06.793Z,25.54
2022-08-07T22:12:05.529Z,25.35
2022-08-07T22:14:34.716Z,25.35
2022-08-07T22:17:05.850Z,25.26
2022-08-07T22:19:39.571Z,24.93
2022-08-07T22:22:27.561Z,25.17
2022-08-07T22:24:55.851Z,25.31
2022-08-07T22:27:34.012Z,25.28
2022-08-07T22:30:22.300Z,25.17
2022-08-07T22:33:11.105Z,25.15
2022-08-07T22:35:56.485Z,25.09
2022-08-07T22:38:33.654Z,25.08
2022-08-07T22:41:16.273Z,25.09
2022-08-07T22:43:50.671Z,24.99
2022-08-07T22:47:02.266Z,24.94
2022-08-07T22:49:54.238Z,24.95
2022-08-07T22:52:37.020Z,24.88
2022-08-07T22:55:30.834Z,24.87
2022-08-07T22:58:34.420Z,24.83
2022-08-07T23:01:15.232Z,24.74
2022-08-07T23:04:05.973Z,24.72
2022-08-07T23:06:51.954Z,24.53
2022-08-07T23:10:05.524Z,24.22
2022-08-07T23:12:37.989Z,24.65
2022-08-07T23:16:05.856Z,24.36
2022-08-07T23:18:44.587Z,24.49
2022-08-07T23:21:30.072Z,24.43
2022-08-07T23:24:22.192Z,24.34
2022-08-07T23:27:13.667Z,24.22
2022-08-07T23:30:38.323Z,24.18
2022-08-07T23:34:34.504Z,24.15
2022-08-07T23:36:28.708Z,24.11
2022-08-07T23:39:01.539Z,24.11
2022-08-07T23:42:04.571Z,24.02
2022-08-07T23:44:49.073Z,23.75
2022-08-07T23:47:22.591Z,23.95
2022-08-07T23:49:52.733Z,23.91
2022-08-07T23:52:58.788Z,23.83
2022-08-07T23:56:02.867Z,23.77
2022-08-07T23:58:46.271Z,23.59
